createdAt,value
2018-08-08T00:01:44.668Z,26.59
2018-08-08T00:02:44.648Z,26.53
2018-08-08T00:04:37.483Z,26.59
2018-08-08T00:05:37.444Z,26.62
2018-08-08T00:07:30.251Z,26.53
2018-08-08T00:08:30.221Z,26.56
2018-08-08T00:10:23.086Z,26.62
2018-08-08T00:11:23.029Z,26.65
2018-08-08T00:13:15.882Z,26.56
2018-08-08T00:14:15.829Z,26.59
2018-08-08T00:16:08.644Z,26.59
2018-08-08T00:17:08.624Z,26.66
2018-08-08T00:19:01.469Z,26.58
2018-08-08T00:20:01.427Z,26.59
2018-08-08T00:21:54.253Z,26.62
2018-08-08T00:22:54.231Z,26.56
2018-08-08T00:24:47.070Z,26.70
2018-08-08T00:25:47.038Z,26.56
2018-08-08T00:27:39.845Z,26.70
2018-08-08T00:28:39.829Z,26.73
2018-08-08T00:30:32.680Z,26.59
2018-08-08T00:31:32.629Z,26.59
2018-08-08T00:33:25.455Z,26.58
2018-08-08T00:34:25.445Z,26.44
2018-08-08T00:36:18.254Z,26.55
2018-08-08T00:37:18.219Z,26.45
2018-08-08T00:39:11.064Z,26.47
2018-08-08T00:40:11.015Z,26.52
2018-08-08T00:42:03.834Z,26.41
2018-08-08T00:43:03.813Z,26.47
2018-08-08T00:44:56.641Z,26.38
2018-08-08T00:45:56.610Z,26.48
2018-08-08T00:47:49.415Z,26.38
2018-08-08T00:48:49.390Z,26.43
2018-08-08T00:50:42.250Z,26.41
2018-08-08T00:51:42.195Z,26.38
2018-08-08T00:53:35.001Z,26.10
2018-08-08T00:54:34.993Z,26.00
2018-08-08T00:56:27.843Z,26.21
2018-08-08T00:57:27.778Z,26.47
2018-08-08T00:59:20.603Z,26.65
2018-08-08T01:00:20.573Z,26.66
2018-08-08T01:02:13.408Z,26.65
2018-08-08T01:03:13.379Z,26.74
2018-08-08T01:05:06.200Z,26.81
2018-08-08T01:06:06.178Z,26.88
2018-08-08T01:07:59.028Z,26.99
2018-08-08T01:08:59.135Z,26.88
2018-08-08T01:10:51.805Z,26.84
2018-08-08T01:11:51.790Z,26.93
2018-08-08T01:13:44.636Z,27.00
2018-08-08T01:14:44.596Z,27.00
2018-08-08T01:16:37.426Z,27.00
2018-08-08T01:17:37.384Z,26.97
2018-08-08T01:19:30.201Z,26.93
2018-08-08T01:20:30.180Z,27.03
2018-08-08T01:22:23.025Z,27.11
2018-08-08T01:23:22.982Z,26.96
2018-08-08T01:25:15.814Z,27.10
2018-08-08T01:26:15.776Z,27.10
2018-08-08T01:28:08.615Z,27.15
2018-08-08T01:29:08.569Z,27.15
2018-08-08T01:31:01.394Z,27.15
2018-08-08T01:32:01.370Z,27.15
2018-08-08T01:33:54.190Z,27.20
2018-08-08T01:34:54.164Z,27.17
2018-08-08T01:36:46.977Z,27.21
2018-08-08T01:37:46.959Z,27.15
2018-08-08T01:39:39.800Z,27.17
2018-08-08T01:40:39.746Z,27.18
2018-08-08T01:42:32.577Z,27.18
2018-08-08T01:43:32.557Z,27.21
2018-08-08T01:45:25.467Z,26.99
2018-08-08T01:46:25.370Z,27.03
2018-08-08T01:48:18.196Z,26.97
2018-08-08T01:49:18.161Z,27.05
2018-08-08T01:51:10.981Z,27.02
2018-08-08T01:52:10.946Z,27.10
2018-08-08T01:54:03.802Z,27.08
2018-08-08T01:55:03.743Z,27.00
2018-08-08T01:56:56.566Z,26.95
2018-08-08T01:57:56.542Z,26.97
2018-08-08T01:59:49.373Z,26.93
2018-08-08T02:00:49.338Z,26.90
2018-08-08T02:02:42.163Z,26.80
2018-08-08T02:03:42.138Z,26.65
2018-08-08T02:05:34.961Z,26.58
2018-08-08T02:06:34.930Z,26.45
2018-08-08T02:08:27.765Z,26.44
2018-08-08T02:09:27.713Z,26.31
2018-08-08T02:11:20.553Z,26.15
2018-08-08T02:12:20.506Z,26.09
2018-08-08T02:14:13.349Z,26.00
2018-08-08T02:15:13.301Z,25.88
2018-08-08T02:17:06.139Z,25.69
2018-08-08T02:18:06.099Z,25.25
2018-08-08T02:19:58.919Z,25.28
2018-08-08T02:20:58.908Z,25.07
2018-08-08T02:22:51.719Z,24.99
2018-08-08T02:23:51.679Z,24.74
2018-08-08T02:25:44.508Z,24.60
2018-08-08T02:26:44.483Z,24.68
2018-08-08T02:28:37.292Z,24.58
2018-08-08T02:29:37.262Z,24.70
2018-08-08T02:31:30.093Z,24.58
2018-08-08T02:32:30.051Z,24.60
2018-08-08T02:34:22.883Z,24.47
2018-08-08T02:35:22.853Z,24.30
2018-08-08T02:37:15.883Z,24.30
2018-08-08T02:38:15.660Z,24.30
2018-08-08T02:40:08.480Z,24.24
2018-08-08T02:41:08.448Z,24.18
2018-08-08T02:43:01.283Z,24.06
2018-08-08T02:44:01.235Z,24.11
2018-08-08T02:45:54.073Z,24.11
2018-08-08T02:46:54.033Z,24.16
2018-08-08T02:48:47.469Z,24.10
2018-08-08T02:49:47.318Z,24.03
2018-08-08T02:51:40.160Z,23.99
2018-08-08T02:52:40.114Z,24.11
2018-08-08T02:54:32.953Z,23.77
2018-08-08T02:55:32.908Z,23.76
2018-08-08T02:57:25.749Z,23.61
2018-08-08T02:58:25.695Z,23.59
2018-08-08T03:00:18.519Z,23.68
2018-08-08T03:01:18.488Z,23.78
2018-08-08T03:03:11.323Z,23.91
2018-08-08T03:04:11.281Z,23.91
2018-08-08T03:06:04.096Z,23.92
2018-08-08T03:07:04.066Z,23.83
2018-08-08T03:08:56.909Z,23.69
2018-08-08T03:09:56.869Z,23.71
2018-08-08T03:11:49.676Z,23.77
2018-08-08T03:12:49.654Z,23.78
2018-08-08T03:14:42.481Z,23.80
2018-08-08T03:15:42.454Z,23.87
2018-08-08T03:17:35.296Z,23.88
2018-08-08T03:18:35.251Z,23.88
2018-08-08T03:20:28.079Z,23.98
2018-08-08T03:21:28.051Z,23.88
2018-08-08T03:23:21.390Z,23.92
2018-08-08T03:24:21.365Z,23.74
2018-08-08T03:26:14.180Z,23.73
2018-08-08T03:27:14.134Z,23.69
2018-08-08T03:29:07.486Z,23.65
2018-08-08T03:30:07.502Z,23.69
2018-08-08T03:32:00.744Z,23.65
2018-08-08T03:33:00.721Z,23.68
2018-08-08T03:34:54.057Z,23.59
2018-08-08T03:35:54.007Z,23.58
2018-08-08T03:37:47.329Z,23.50
2018-08-08T03:38:47.302Z,23.51
2018-08-08T03:40:40.630Z,23.37
2018-08-08T03:41:40.587Z,23.21
2018-08-08T03:43:33.919Z,23.12
2018-08-08T03:44:33.881Z,23.13
2018-08-08T03:46:26.691Z,23.23
2018-08-08T03:47:26.669Z,23.15
2018-08-08T03:49:19.995Z,23.21
2018-08-08T03:50:19.960Z,23.32
2018-08-08T03:52:12.855Z,23.36
2018-08-08T03:53:12.834Z,23.36
2018-08-08T03:55:05.675Z,23.40
2018-08-08T03:56:05.617Z,23.48
2018-08-08T03:58:00.057Z,23.56
2018-08-08T03:58:58.439Z,23.65
2018-08-08T04:00:51.265Z,23.65
2018-08-08T04:01:51.218Z,23.71
2018-08-08T04:03:44.006Z,23.78
2018-08-08T04:04:43.992Z,23.74
2018-08-08T04:06:37.315Z,23.91
2018-08-08T04:07:37.273Z,23.80
2018-08-08T04:09:30.101Z,23.83
2018-08-08T04:10:30.075Z,23.87
2018-08-08T04:12:22.911Z,23.86
2018-08-08T04:13:22.868Z,23.81
2018-08-08T04:15:15.672Z,23.62
2018-08-08T04:16:15.652Z,23.55
2018-08-08T04:18:08.986Z,23.56
2018-08-08T04:19:08.943Z,23.37
2018-08-08T04:21:01.777Z,23.20
2018-08-08T04:22:01.741Z,23.03
2018-08-08T04:23:55.072Z,22.78
2018-08-08T04:24:55.017Z,22.54
2018-08-08T04:26:47.842Z,22.43
2018-08-08T04:27:47.812Z,22.30
2018-08-08T04:29:41.180Z,22.00
2018-08-08T04:30:41.141Z,21.91
2018-08-08T04:32:34.032Z,21.58
2018-08-08T04:33:33.965Z,21.43
2018-08-08T04:35:27.276Z,21.30
2018-08-08T04:36:27.211Z,21.29
2018-08-08T04:38:20.633Z,21.21
2018-08-08T04:39:19.996Z,21.09
2018-08-08T04:41:12.883Z,21.02
2018-08-08T04:42:12.778Z,20.92
2018-08-08T04:44:05.648Z,20.80
2018-08-08T04:45:05.604Z,20.82
2018-08-08T04:46:58.545Z,20.75
2018-08-08T04:47:58.378Z,20.75
2018-08-08T04:49:51.218Z,20.74
2018-08-08T04:50:51.145Z,20.72
2018-08-08T04:52:44.448Z,20.69
2018-08-08T04:53:44.437Z,20.60
2018-08-08T04:55:37.368Z,20.63
2018-08-08T04:56:37.249Z,20.58
2018-08-08T04:58:30.050Z,20.50
2018-08-08T04:59:30.002Z,20.56
2018-08-08T05:01:22.848Z,20.43
2018-08-08T05:02:22.797Z,20.48
2018-08-08T05:04:15.694Z,20.50
2018-08-08T05:05:15.598Z,20.55
2018-08-08T05:07:08.448Z,20.50
2018-08-08T05:08:08.385Z,20.43
2018-08-08T05:10:01.715Z,20.51
2018-08-08T05:11:01.673Z,20.48
2018-08-08T05:12:54.975Z,20.59
2018-08-08T05:13:54.964Z,20.55
2018-08-08T05:15:47.789Z,20.65
2018-08-08T05:16:47.735Z,20.65
2018-08-08T05:18:41.039Z,20.69
2018-08-08T05:19:41.020Z,20.66
2018-08-08T05:21:34.456Z,20.69
2018-08-08T05:22:33.826Z,20.74
2018-08-08T05:24:28.119Z,20.77
2018-08-08T05:25:28.131Z,20.75
2018-08-08T05:27:21.418Z,20.84
2018-08-08T05:28:21.369Z,20.74
2018-08-08T05:30:14.829Z,20.77
2018-08-08T05:31:14.640Z,20.85
2018-08-08T05:33:08.053Z,20.82
2018-08-08T05:34:07.957Z,20.75
2018-08-08T05:36:01.285Z,20.88
2018-08-08T05:37:01.252Z,20.80
2018-08-08T05:38:54.071Z,20.92
2018-08-08T05:39:54.005Z,20.74
2018-08-08T05:41:46.870Z,20.78
2018-08-08T05:42:46.843Z,20.75
2018-08-08T05:44:40.144Z,20.87
2018-08-08T05:45:40.120Z,20.97
2018-08-08T05:47:33.494Z,20.90
2018-08-08T05:48:33.441Z,20.95
2018-08-08T05:50:26.754Z,20.99
2018-08-08T05:51:26.742Z,21.03
2018-08-08T05:53:19.559Z,21.09
2018-08-08T05:54:19.496Z,21.09
2018-08-08T05:56:12.311Z,21.09
2018-08-08T05:57:12.292Z,21.15
2018-08-08T05:59:05.115Z,21.17
2018-08-08T06:00:05.075Z,21.07
2018-08-08T06:01:58.417Z,21.03
2018-08-08T06:02:58.371Z,21.05
2018-08-08T06:04:51.722Z,21.14
2018-08-08T06:05:51.670Z,21.12
2018-08-08T06:07:45.065Z,21.12
2018-08-08T06:08:44.985Z,21.07
2018-08-08T06:10:38.278Z,21.21
2018-08-08T06:11:38.232Z,21.22
2018-08-08T06:13:31.053Z,21.21
2018-08-08T06:14:31.024Z,21.33
2018-08-08T06:16:23.830Z,21.32
2018-08-08T06:17:23.805Z,21.33
2018-08-08T06:19:16.817Z,21.36
2018-08-08T06:20:16.597Z,21.37
2018-08-08T06:22:09.913Z,21.46
2018-08-08T06:23:09.873Z,21.51
2018-08-08T06:25:03.201Z,21.62
2018-08-08T06:26:03.166Z,21.60
2018-08-08T06:27:56.488Z,21.57
2018-08-08T06:28:56.453Z,21.72
2018-08-08T06:30:49.778Z,21.69
2018-08-08T06:31:49.805Z,21.76
2018-08-08T06:33:42.566Z,21.88
2018-08-08T06:34:42.538Z,21.98
2018-08-08T06:36:35.861Z,22.02
2018-08-08T06:37:35.832Z,21.95
2018-08-08T06:39:29.148Z,21.95
2018-08-08T06:40:29.097Z,22.02
2018-08-08T06:42:22.428Z,22.07
2018-08-08T06:43:22.403Z,22.15
2018-08-08T06:45:15.754Z,22.17
2018-08-08T06:46:15.668Z,22.18
2018-08-08T06:48:08.539Z,22.23
2018-08-08T06:49:08.464Z,22.20
2018-08-08T06:51:01.307Z,22.18
2018-08-08T06:52:01.259Z,22.18
2018-08-08T06:53:54.060Z,22.26
2018-08-08T06:54:54.044Z,22.39
2018-08-08T06:56:46.872Z,22.41
2018-08-08T06:57:46.837Z,22.44
2018-08-08T06:59:40.155Z,22.51
2018-08-08T07:00:40.128Z,22.54
2018-08-08T07:02:33.441Z,22.66
2018-08-08T07:03:33.398Z,22.70
2018-08-08T07:05:26.780Z,22.80
2018-08-08T07:06:26.684Z,22.90
2018-08-08T07:08:19.509Z,22.98
2018-08-08T07:09:19.468Z,22.99
2018-08-08T07:11:12.307Z,23.13
2018-08-08T07:12:12.254Z,23.23
2018-08-08T07:14:05.628Z,23.32
2018-08-08T07:15:05.553Z,23.46
2018-08-08T07:16:58.368Z,23.48
2018-08-08T07:17:58.322Z,23.63
2018-08-08T07:19:51.685Z,23.73
2018-08-08T07:20:51.612Z,23.81
2018-08-08T07:22:44.933Z,23.84
2018-08-08T07:23:44.890Z,23.86
2018-08-08T07:25:38.209Z,24.06
2018-08-08T07:26:38.188Z,24.02
2018-08-08T07:28:31.514Z,24.08
2018-08-08T07:29:31.463Z,24.20
2018-08-08T07:31:24.309Z,24.24
2018-08-08T07:32:24.264Z,24.16
2018-08-08T07:34:17.105Z,24.26
2018-08-08T07:35:17.058Z,24.28
2018-08-08T07:37:09.884Z,24.39
2018-08-08T07:38:09.869Z,24.38
2018-08-08T07:40:03.262Z,24.55
2018-08-08T07:41:03.148Z,24.43
2018-08-08T07:42:56.468Z,24.55
2018-08-08T07:43:56.415Z,24.53
2018-08-08T07:45:49.318Z,24.63
2018-08-08T07:46:49.226Z,24.57
2018-08-08T07:48:42.546Z,24.58
2018-08-08T07:49:42.510Z,24.55
2018-08-08T07:51:35.324Z,24.69
2018-08-08T07:52:35.286Z,24.66
2018-08-08T07:54:28.140Z,24.32
2018-08-08T07:55:28.109Z,24.16
2018-08-08T07:57:20.924Z,24.14
2018-08-08T07:58:20.970Z,24.06
2018-08-08T08:00:13.741Z,24.03
2018-08-08T08:01:13.705Z,24.08
2018-08-08T08:03:06.531Z,24.26
2018-08-08T08:04:06.481Z,24.51
2018-08-08T08:05:59.307Z,24.63
2018-08-08T08:06:59.277Z,24.69
2018-08-08T08:08:52.124Z,24.69
2018-08-08T08:09:52.070Z,24.76
2018-08-08T08:11:44.899Z,24.80
2018-08-08T08:12:44.876Z,24.73
2018-08-08T08:14:37.701Z,24.84
2018-08-08T08:15:37.672Z,24.96
2018-08-08T08:17:30.476Z,25.04
2018-08-08T08:18:30.458Z,25.01
2018-08-08T08:20:23.282Z,25.11
2018-08-08T08:21:23.246Z,25.21
2018-08-08T08:23:16.090Z,25.21
2018-08-08T08:24:16.043Z,25.08
2018-08-08T08:26:08.871Z,25.01
2018-08-08T08:27:08.838Z,24.96
2018-08-08T08:29:01.687Z,25.16
2018-08-08T08:30:01.634Z,25.21
2018-08-08T08:31:54.462Z,25.25
2018-08-08T08:32:54.422Z,25.25
2018-08-08T08:34:47.267Z,25.13
2018-08-08T08:35:47.235Z,24.96
2018-08-08T08:37:40.059Z,25.06
2018-08-08T08:38:40.017Z,25.03
2018-08-08T08:40:32.848Z,25.03
2018-08-08T08:41:32.812Z,25.04
2018-08-08T08:43:25.643Z,25.22
2018-08-08T08:44:25.632Z,25.13
2018-08-08T08:46:18.447Z,25.16
2018-08-08T08:47:18.430Z,25.11
2018-08-08T08:49:11.234Z,25.16
2018-08-08T08:50:11.207Z,25.29
2018-08-08T08:52:04.029Z,25.28
2018-08-08T08:53:03.979Z,25.31
2018-08-08T08:54:56.839Z,25.22
2018-08-08T08:55:56.777Z,25.25
2018-08-08T08:57:49.626Z,25.25
2018-08-08T08:58:49.569Z,25.18
2018-08-08T09:00:42.397Z,25.35
2018-08-08T09:01:42.367Z,25.51
2018-08-08T09:03:35.183Z,25.60
2018-08-08T09:04:35.154Z,25.73
2018-08-08T09:06:28.004Z,25.81
2018-08-08T09:07:27.987Z,25.88
2018-08-08T09:09:20.793Z,26.03
2018-08-08T09:10:20.759Z,26.05
2018-08-08T09:12:13.620Z,26.18
2018-08-08T09:13:13.537Z,26.19
2018-08-08T09:15:06.530Z,26.23
2018-08-08T09:16:06.345Z,26.23
2018-08-08T09:17:59.243Z,26.13
2018-08-08T09:18:59.205Z,25.91
2018-08-08T09:20:52.022Z,26.00
2018-08-08T09:21:51.993Z,25.95
2018-08-08T09:23:45.318Z,26.09
2018-08-08T09:24:45.279Z,26.16
2018-08-08T09:26:38.103Z,26.06
2018-08-08T09:27:38.084Z,26.06
2018-08-08T09:29:30.893Z,26.22
2018-08-08T09:30:30.925Z,26.18
2018-08-08T09:32:23.684Z,26.28
2018-08-08T09:33:23.653Z,26.37
2018-08-08T09:35:16.501Z,26.19
2018-08-08T09:36:16.465Z,26.38
2018-08-08T09:38:09.290Z,26.36
2018-08-08T09:39:09.255Z,26.36
2018-08-08T09:41:02.113Z,26.22
2018-08-08T09:42:02.059Z,26.23
2018-08-08T09:43:55.397Z,26.25
2018-08-08T09:44:55.373Z,26.19
2018-08-08T09:46:48.209Z,26.26
2018-08-08T09:47:48.151Z,26.21
2018-08-08T09:49:41.066Z,26.22
2018-08-08T09:50:41.009Z,26.21
2018-08-08T09:52:33.781Z,26.38
2018-08-08T09:53:33.762Z,26.37
2018-08-08T09:55:26.617Z,26.38
2018-08-08T09:56:26.659Z,26.44
2018-08-08T09:58:19.381Z,26.43
2018-08-08T09:59:19.355Z,26.41
2018-08-08T10:01:12.185Z,26.36
2018-08-08T10:02:12.162Z,26.34
2018-08-08T10:04:04.991Z,26.38
2018-08-08T10:05:04.951Z,26.40
2018-08-08T10:06:57.765Z,26.33
2018-08-08T10:07:57.740Z,26.33
2018-08-08T10:09:50.570Z,26.34
2018-08-08T10:10:50.525Z,26.26
2018-08-08T10:12:43.371Z,26.34
2018-08-08T10:13:43.337Z,26.26
2018-08-08T10:15:36.184Z,26.23
2018-08-08T10:16:36.141Z,26.22
2018-08-08T10:18:28.957Z,26.13
2018-08-08T10:19:28.933Z,26.22
2018-08-08T10:21:21.766Z,26.22
2018-08-08T10:22:21.725Z,26.19
2018-08-08T10:24:14.562Z,26.28
2018-08-08T10:25:14.523Z,26.21
2018-08-08T10:27:07.437Z,26.21
2018-08-08T10:28:07.336Z,26.28
2018-08-08T10:30:00.163Z,26.26
2018-08-08T10:31:00.122Z,26.19
2018-08-08T10:32:52.964Z,26.21
2018-08-08T10:33:52.922Z,26.19
2018-08-08T10:35:45.742Z,26.22
2018-08-08T10:36:45.708Z,26.22
2018-08-08T10:38:38.557Z,26.19
2018-08-08T10:39:38.509Z,26.23
2018-08-08T10:41:31.326Z,26.26
2018-08-08T10:42:31.296Z,26.22
2018-08-08T10:44:24.128Z,26.31
2018-08-08T10:45:24.091Z,26.29
2018-08-08T10:47:16.933Z,26.19
2018-08-08T10:48:16.896Z,26.18
2018-08-08T10:50:09.732Z,26.19
2018-08-08T10:51:09.693Z,26.07
2018-08-08T10:53:02.608Z,26.18
2018-08-08T10:54:02.503Z,26.23
2018-08-08T10:55:55.368Z,26.26
2018-08-08T10:56:55.292Z,26.26
2018-08-08T10:58:48.117Z,26.47
2018-08-08T10:59:48.079Z,26.75
2018-08-08T11:01:40.898Z,26.53
2018-08-08T11:02:40.872Z,26.62
2018-08-08T11:04:33.712Z,26.81
2018-08-08T11:05:33.716Z,26.89
2018-08-08T11:07:26.493Z,27.14
2018-08-08T11:08:26.454Z,27.35
2018-08-08T11:10:19.308Z,27.74
2018-08-08T11:11:19.293Z,28.07
2018-08-08T11:13:12.096Z,27.82
2018-08-08T11:14:12.062Z,27.89
2018-08-08T11:16:04.889Z,27.83
2018-08-08T11:17:04.957Z,27.74
2018-08-08T11:18:57.704Z,27.83
2018-08-08T11:19:57.662Z,27.78
2018-08-08T11:21:50.502Z,27.45
2018-08-08T11:22:50.468Z,27.58
2018-08-08T11:24:43.297Z,27.73
2018-08-08T11:25:43.252Z,27.78
2018-08-08T11:27:36.087Z,27.96
2018-08-08T11:28:36.058Z,27.89
2018-08-08T11:30:28.935Z,27.82
2018-08-08T11:31:28.860Z,27.70
2018-08-08T11:33:21.678Z,27.65
2018-08-08T11:34:21.654Z,27.63
2018-08-08T11:36:14.494Z,27.55
2018-08-08T11:37:14.440Z,27.60
2018-08-08T11:39:07.294Z,27.85
2018-08-08T11:40:07.255Z,27.87
2018-08-08T11:42:00.120Z,27.45
2018-08-08T11:43:00.110Z,27.52
2018-08-08T11:44:53.097Z,27.45
2018-08-08T11:45:52.894Z,27.27
2018-08-08T11:47:45.718Z,27.27
2018-08-08T11:48:45.669Z,27.25
2018-08-08T11:50:38.525Z,27.11
2018-08-08T11:51:38.474Z,26.93
2018-08-08T11:53:31.309Z,26.83
2018-08-08T11:54:31.284Z,26.93
2018-08-08T11:56:24.122Z,27.18
2018-08-08T11:57:24.074Z,27.44
2018-08-08T11:59:16.895Z,27.49
2018-08-08T12:00:16.874Z,27.65
2018-08-08T12:02:09.723Z,27.95
2018-08-08T12:03:09.666Z,28.00
2018-08-08T12:05:02.510Z,28.04
2018-08-08T12:06:02.511Z,28.11
2018-08-08T12:07:55.295Z,28.48
2018-08-08T12:08:55.274Z,28.41
2018-08-08T12:10:48.113Z,28.52
2018-08-08T12:11:48.086Z,28.57
2018-08-08T12:13:40.910Z,28.91
2018-08-08T12:14:40.885Z,28.81
2018-08-08T12:16:33.728Z,29.10
2018-08-08T12:17:33.712Z,29.32
2018-08-08T12:19:26.529Z,29.38
2018-08-08T12:20:26.517Z,29.27
2018-08-08T12:22:19.359Z,29.31
2018-08-08T12:23:19.404Z,28.97
2018-08-08T12:25:12.146Z,29.08
2018-08-08T12:26:12.123Z,28.84
2018-08-08T12:28:04.984Z,28.91
2018-08-08T12:29:04.940Z,29.20
2018-08-08T12:30:57.774Z,29.56
2018-08-08T12:31:57.733Z,29.88
2018-08-08T12:33:50.660Z,29.87
2018-08-08T12:34:50.614Z,30.12
2018-08-08T12:36:43.730Z,30.13
2018-08-08T12:37:43.695Z,29.84
2018-08-08T12:39:36.575Z,29.69
2018-08-08T12:40:36.524Z,29.72
2018-08-08T12:42:29.350Z,29.78
2018-08-08T12:43:29.303Z,29.79
2018-08-08T12:45:22.140Z,29.35
2018-08-08T12:46:22.112Z,29.23
2018-08-08T12:48:14.967Z,29.31
2018-08-08T12:49:14.933Z,29.02
2018-08-08T12:51:07.780Z,29.13
2018-08-08T12:52:07.743Z,28.94
2018-08-08T12:54:00.660Z,28.64
2018-08-08T12:55:00.631Z,28.64
2018-08-08T12:56:53.439Z,28.41
2018-08-08T12:57:53.409Z,28.42
2018-08-08T12:59:46.253Z,28.52
2018-08-08T13:00:46.231Z,28.41
2018-08-08T13:02:39.073Z,28.23
2018-08-08T13:03:39.018Z,28.26
2018-08-08T13:05:31.858Z,28.05
2018-08-08T13:06:31.835Z,28.11
2018-08-08T13:08:24.698Z,28.01
2018-08-08T13:09:24.616Z,27.83
2018-08-08T13:11:17.462Z,27.85
2018-08-08T13:12:17.432Z,27.78
2018-08-08T13:14:10.439Z,27.65
2018-08-08T13:15:10.234Z,27.58
2018-08-08T13:17:03.062Z,27.45
2018-08-08T13:18:03.013Z,27.44
2018-08-08T13:19:55.863Z,27.47
2018-08-08T13:20:55.818Z,27.55
2018-08-08T13:22:48.643Z,27.52
2018-08-08T13:23:48.682Z,27.27
2018-08-08T13:25:41.453Z,27.29
2018-08-08T13:26:41.416Z,27.22
2018-08-08T13:28:34.340Z,27.07
2018-08-08T13:29:34.206Z,26.93
2018-08-08T13:31:27.063Z,26.95
2018-08-08T13:32:27.008Z,27.14
2018-08-08T13:34:19.829Z,27.07
2018-08-08T13:35:19.806Z,26.93
2018-08-08T13:37:12.648Z,26.96
2018-08-08T13:38:12.603Z,26.95
2018-08-08T13:40:05.424Z,26.95
2018-08-08T13:41:05.405Z,26.62
2018-08-08T13:42:58.245Z,26.68
2018-08-08T13:43:58.194Z,26.78
2018-08-08T13:45:51.083Z,26.70
2018-08-08T13:46:50.990Z,26.68
2018-08-08T13:48:43.850Z,26.92
2018-08-08T13:49:43.799Z,26.95
2018-08-08T13:51:36.638Z,26.85
2018-08-08T13:52:36.583Z,26.92
2018-08-08T13:54:29.412Z,26.99
2018-08-08T13:55:29.408Z,27.02
2018-08-08T13:57:22.213Z,27.11
2018-08-08T13:58:22.186Z,26.93
2018-08-08T14:00:15.025Z,26.81
2018-08-08T14:01:15.101Z,26.66
2018-08-08T14:03:07.817Z,26.84
2018-08-08T14:04:07.769Z,26.88
2018-08-08T14:06:00.613Z,27.03
2018-08-08T14:07:00.565Z,27.21
2018-08-08T14:08:53.393Z,27.15
2018-08-08T14:09:53.365Z,27.17
2018-08-08T14:11:46.204Z,27.18
2018-08-08T14:12:46.194Z,27.22
2018-08-08T14:14:39.004Z,27.65
2018-08-08T14:15:39.214Z,27.45
2018-08-08T14:17:31.821Z,27.32
2018-08-08T14:18:31.802Z,27.45
2018-08-08T14:20:24.596Z,27.40
2018-08-08T14:21:24.578Z,27.63
2018-08-08T14:23:17.424Z,27.54
2018-08-08T14:24:17.386Z,27.58
2018-08-08T14:26:10.211Z,27.59
2018-08-08T14:27:10.252Z,27.63
2018-08-08T14:29:03.027Z,27.70
2018-08-08T14:30:03.017Z,27.77
2018-08-08T14:31:55.831Z,27.95
2018-08-08T14:32:55.792Z,28.19
2018-08-08T14:34:48.602Z,28.32
2018-08-08T14:35:48.619Z,28.27
2018-08-08T14:37:41.426Z,28.60
2018-08-08T14:38:41.381Z,28.54
2018-08-08T14:40:34.205Z,28.22
2018-08-08T14:41:34.180Z,28.27
2018-08-08T14:43:27.113Z,28.44
2018-08-08T14:44:26.990Z,28.27
2018-08-08T14:46:19.821Z,28.47
2018-08-08T14:47:19.805Z,28.69
2018-08-08T14:49:12.622Z,28.70
2018-08-08T14:50:12.592Z,28.78
2018-08-08T14:52:05.425Z,29.34
2018-08-08T14:53:05.386Z,29.32
2018-08-08T14:54:58.278Z,28.98
2018-08-08T14:55:58.227Z,29.14
2018-08-08T14:57:51.047Z,29.35
2018-08-08T14:58:51.016Z,29.72
2018-08-08T15:00:43.871Z,29.23
2018-08-08T15:01:43.830Z,29.27
2018-08-08T15:03:36.682Z,29.27
2018-08-08T15:04:36.627Z,29.32
2018-08-08T15:06:29.466Z,29.19
2018-08-08T15:07:29.432Z,29.02
2018-08-08T15:09:22.289Z,29.53
2018-08-08T15:10:22.253Z,29.61
2018-08-08T15:12:15.073Z,29.36
2018-08-08T15:13:15.048Z,29.49
2018-08-08T15:15:07.897Z,29.86
2018-08-08T15:16:07.852Z,29.88
2018-08-08T15:18:00.672Z,29.97
2018-08-08T15:19:00.653Z,30.03
2018-08-08T15:20:53.492Z,29.84
2018-08-08T15:21:53.447Z,30.00
2018-08-08T15:23:46.276Z,30.10
2018-08-08T15:24:46.252Z,30.28
2018-08-08T15:26:39.092Z,30.54
2018-08-08T15:27:39.064Z,30.69
2018-08-08T15:29:31.893Z,30.47
2018-08-08T15:30:31.876Z,30.78
2018-08-08T15:32:24.724Z,30.75
2018-08-08T15:33:24.663Z,30.44
2018-08-08T15:35:17.541Z,30.50
2018-08-08T15:36:17.484Z,30.55
2018-08-08T15:38:10.317Z,30.40
2018-08-08T15:39:10.298Z,30.47
2018-08-08T15:41:03.149Z,29.86
2018-08-08T15:42:03.099Z,29.71
2018-08-08T15:43:55.941Z,29.38
2018-08-08T15:44:55.908Z,29.01
2018-08-08T15:46:48.748Z,29.13
2018-08-08T15:47:48.722Z,29.36
2018-08-08T15:49:41.543Z,29.02
2018-08-08T15:50:41.529Z,29.22
2018-08-08T15:52:34.378Z,28.72
2018-08-08T15:53:34.318Z,28.54
2018-08-08T15:55:27.147Z,28.32
2018-08-08T15:56:27.128Z,28.10
2018-08-08T15:58:20.039Z,27.93
2018-08-08T15:59:20.008Z,28.14
2018-08-08T16:01:12.958Z,28.78
2018-08-08T16:02:12.900Z,28.47
2018-08-08T16:04:05.799Z,28.72
2018-08-08T16:05:05.747Z,28.69
2018-08-08T16:06:58.724Z,28.19
2018-08-08T16:07:58.676Z,28.30
2018-08-08T16:09:51.637Z,28.04
2018-08-08T16:10:51.560Z,28.14
2018-08-08T16:12:44.527Z,28.20
2018-08-08T16:13:44.493Z,28.32
2018-08-08T16:15:37.318Z,28.60
2018-08-08T16:16:37.291Z,28.93
2018-08-08T16:18:30.154Z,29.31
2018-08-08T16:19:30.114Z,29.27
2018-08-08T16:21:22.925Z,29.20
2018-08-08T16:22:22.905Z,29.36
2018-08-08T16:24:15.767Z,29.59
2018-08-08T16:25:15.705Z,29.50
2018-08-08T16:27:08.560Z,29.51
2018-08-08T16:28:08.508Z,29.44
2018-08-08T16:30:01.341Z,29.31
2018-08-08T16:31:01.303Z,29.26
2018-08-08T16:32:54.161Z,29.63
2018-08-08T16:33:54.135Z,29.73
2018-08-08T16:35:46.952Z,29.90
2018-08-08T16:36:46.919Z,29.93
2018-08-08T16:38:39.781Z,29.45
2018-08-08T16:39:39.729Z,29.17
2018-08-08T16:41:32.584Z,29.08
2018-08-08T16:42:32.565Z,29.02
2018-08-08T16:44:25.382Z,28.72
2018-08-08T16:45:25.339Z,28.69
2018-08-08T16:47:18.175Z,28.79
2018-08-08T16:48:18.144Z,28.57
2018-08-08T16:50:10.994Z,28.85
2018-08-08T16:51:10.949Z,28.81
2018-08-08T16:53:03.770Z,28.47
2018-08-08T16:54:03.754Z,28.39
2018-08-08T16:55:56.590Z,28.44
2018-08-08T16:56:56.586Z,28.45
2018-08-08T16:58:49.371Z,28.44
2018-08-08T16:59:49.369Z,28.37
2018-08-08T17:01:42.201Z,28.51
2018-08-08T17:02:42.152Z,28.56
2018-08-08T17:04:34.987Z,28.37
2018-08-08T17:05:34.945Z,28.14
2018-08-08T17:07:27.779Z,28.14
2018-08-08T17:08:27.771Z,28.20
2018-08-08T17:10:20.587Z,28.22
2018-08-08T17:11:20.560Z,28.32
2018-08-08T17:13:13.372Z,28.32
2018-08-08T17:14:13.358Z,28.29
2018-08-08T17:16:06.182Z,28.12
2018-08-08T17:17:06.152Z,28.07
2018-08-08T17:18:58.972Z,28.11
2018-08-08T17:19:58.951Z,28.05
2018-08-08T17:21:51.783Z,28.00
2018-08-08T17:22:51.767Z,28.02
2018-08-08T17:24:44.673Z,27.82
2018-08-08T17:25:44.558Z,27.64
2018-08-08T17:27:37.395Z,27.59
2018-08-08T17:28:37.378Z,27.73
2018-08-08T17:30:30.171Z,27.73
2018-08-08T17:31:30.148Z,27.71
2018-08-08T17:33:22.984Z,27.68
2018-08-08T17:34:22.946Z,27.52
2018-08-08T17:36:15.776Z,27.44
2018-08-08T17:37:15.746Z,27.44
2018-08-08T17:39:08.576Z,27.36
2018-08-08T17:40:08.532Z,27.44
2018-08-08T17:42:01.369Z,27.36
2018-08-08T17:43:01.465Z,27.33
2018-08-08T17:44:54.174Z,27.32
2018-08-08T17:45:54.138Z,27.25
2018-08-08T17:47:46.957Z,27.15
2018-08-08T17:48:46.937Z,27.12
2018-08-08T17:50:39.768Z,26.93
2018-08-08T17:51:39.721Z,26.85
2018-08-08T17:53:32.593Z,26.60
2018-08-08T17:54:32.527Z,26.58
2018-08-08T17:56:25.404Z,26.47
2018-08-08T17:57:25.324Z,26.44
2018-08-08T17:59:18.249Z,26.38
2018-08-08T18:00:18.192Z,26.38
2018-08-08T18:02:11.028Z,26.33
2018-08-08T18:03:10.997Z,26.34
2018-08-08T18:05:03.810Z,26.44
2018-08-08T18:06:03.780Z,26.26
2018-08-08T18:07:56.618Z,26.22
2018-08-08T18:08:56.579Z,26.06
2018-08-08T18:10:49.421Z,26.00
2018-08-08T18:11:49.374Z,26.05
2018-08-08T18:13:42.209Z,25.88
2018-08-08T18:14:42.172Z,25.81
2018-08-08T18:16:34.999Z,25.68
2018-08-08T18:17:34.954Z,25.65
2018-08-08T18:19:27.799Z,25.70
2018-08-08T18:20:27.759Z,25.63
2018-08-08T18:22:20.603Z,25.72
2018-08-08T18:23:20.571Z,25.62
2018-08-08T18:25:13.405Z,25.63
2018-08-08T18:26:13.404Z,25.53
2018-08-08T18:28:06.183Z,25.47
2018-08-08T18:29:06.201Z,25.51
2018-08-08T18:30:58.986Z,25.48
2018-08-08T18:31:58.953Z,25.33
2018-08-08T18:33:51.761Z,25.26